createdAt,value
2022-08-18T00:00:01.380Z,101544.88
2022-08-18T00:03:20.257Z,101551.00
2022-08-18T00:06:35.299Z,101551.31
2022-08-18T00:09:42.282Z,101542.09
2022-08-18T00:12:48.766Z,101542.28
2022-08-18T00:15:54.172Z,101540.72
2022-08-18T00:19:00.256Z,101542.38
2022-08-18T00:22:05.839Z,101543.31
2022-08-18T00:25:15.375Z,101551.25
2022-08-18T00:28:23.979Z,101556.31
2022-08-18T00:31:29.672Z,101553.72
2022-08-18T00:34:35.033Z,101553.44
2022-08-18T00:37:40.207Z,101546.81
2022-08-18T00:40:48.425Z,101545.06
2022-08-18T00:43:58.444Z,101542.63
2022-08-18T00:47:04.031Z,101542.19
2022-08-18T00:50:11.767Z,101548.16
2022-08-18T00:53:23.945Z,101549.81
2022-08-18T00:56:35.574Z,101558.38
2022-08-18T00:59:46.990Z,101568.47
2022-08-18T01:02:57.286Z,101567.47
2022-08-18T01:06:07.328Z,101565.13
2022-08-18T01:09:12.783Z,101564.47
2022-08-18T01:12:43.874Z,101571.34
2022-08-18T01:15:45.374Z,101568.75
2022-08-18T01:19:08.354Z,101578.50
2022-08-18T01:22:20.665Z,101577.69
2022-08-18T01:25:44.613Z,101585.66
2022-08-18T01:28:50.737Z,101597.72
2022-08-18T01:31:56.518Z,101594.72
2022-08-18T01:35:01.931Z,101598.53
2022-08-18T01:38:07.371Z,101589.06
2022-08-18T01:41:28.619Z,101591.84
2022-08-18T01:44:35.091Z,101587.31
2022-08-18T01:47:58.069Z,101592.78
2022-08-18T01:51:07.236Z,101588.59
2022-08-18T01:54:15.679Z,101593.22
2022-08-18T01:57:22.877Z,101587.09
2022-08-18T02:00:29.821Z,101587.47
2022-08-18T02:03:38.073Z,101593.41
2022-08-18T02:06:47.785Z,101586.72
2022-08-18T02:09:53.872Z,101590.91
2022-08-18T02:13:00.395Z,101595.53
2022-08-18T02:16:06.579Z,101587.56
2022-08-18T02:19:12.407Z,101597.88
2022-08-18T02:22:21.940Z,101603.81
2022-08-18T02:25:27.233Z,101596.34
2022-08-18T02:28:33.983Z,101601.72
2022-08-18T02:31:39.239Z,101601.72
2022-08-18T02:34:45.050Z,101609.09
2022-08-18T02:37:50.132Z,101599.56
2022-08-18T02:40:57.515Z,101590.25
2022-08-18T02:44:05.218Z,101589.25
2022-08-18T02:47:10.539Z,101588.50
2022-08-18T02:50:16.963Z,101589.41
2022-08-18T02:53:23.475Z,101587.75
2022-08-18T02:56:40.568Z,101595.78
2022-08-18T02:59:48.408Z,101595.88
2022-08-18T03:02:54.591Z,101589.00
2022-08-18T03:06:00.226Z,101589.00
2022-08-18T03:09:06.372Z,101599.41
2022-08-18T03:12:12.682Z,101601.16
2022-08-18T03:15:19.610Z,101603.66
2022-08-18T03:18:24.853Z,101603.66
2022-08-18T03:21:32.175Z,101595.88
2022-08-18T03:24:37.565Z,101598.38
2022-08-18T03:27:42.684Z,101600.06
2022-08-18T03:30:49.691Z,101604.59
2022-08-18T03:33:55.314Z,101615.56
2022-08-18T03:37:04.587Z,101620.69
2022-08-18T03:40:11.976Z,101620.59
2022-08-18T03:43:25.860Z,101619.50
2022-08-18T03:46:45.435Z,101620.34
2022-08-18T03:49:50.932Z,101624.88
2022-08-18T03:52:59.470Z,101622.59
2022-08-18T03:56:09.512Z,101624.44
2022-08-18T03:59:18.993Z,101626.72
2022-08-18T04:02:25.458Z,101620.84
2022-08-18T04:05:32.071Z,101627.88
2022-08-18T04:08:37.295Z,101626.13
2022-08-18T04:11:44.377Z,101638.38
2022-08-18T04:14:51.876Z,101634.84
2022-08-18T04:18:04.484Z,101635.34
2022-08-18T04:21:13.647Z,101637.09
2022-08-18T04:24:18.756Z,101634.50
2022-08-18T04:27:24.209Z,101640.53
2022-08-18T04:30:29.914Z,101642.31
2022-08-18T04:33:36.957Z,101654.19
2022-08-18T04:36:43.115Z,101648.72
2022-08-18T04:39:48.781Z,101659.03
2022-08-18T04:42:54.638Z,101659.41
2022-08-18T04:46:02.017Z,101661.06
2022-08-18T04:49:10.604Z,101658.56
2022-08-18T04:52:40.089Z,101664.22
2022-08-18T04:55:49.669Z,101673.69
2022-08-18T04:58:56.891Z,101669.00
2022-08-18T05:02:05.742Z,101666.31
2022-08-18T05:05:12.375Z,101672.81
2022-08-18T05:08:17.618Z,101669.03
2022-08-18T05:11:25.394Z,101667.25
2022-08-18T05:14:31.478Z,101664.31
2022-08-18T05:17:39.845Z,101661.97
2022-08-18T05:20:47.535Z,101667.00
2022-08-18T05:23:54.368Z,101660.69
2022-08-18T05:26:59.398Z,101664.31
2022-08-18T05:30:06.333Z,101668.03
2022-08-18T05:33:16.820Z,101671.66
2022-08-18T05:36:38.433Z,101688.13
2022-08-18T05:39:55.183Z,101697.69
2022-08-18T05:43:02.495Z,101694.91
2022-08-18T05:46:08.750Z,101697.25
2022-08-18T05:49:15.189Z,101703.47
2022-08-18T05:52:31.519Z,101697.41
2022-08-18T05:55:58.243Z,101696.66
2022-08-18T05:59:04.649Z,101690.28
2022-08-18T06:02:16.047Z,101699.63
2022-08-18T06:05:25.468Z,101697.41
2022-08-18T06:08:39.499Z,101694.91
2022-08-18T06:11:44.640Z,101698.25
2022-08-18T06:14:50.703Z,101707.00
2022-08-18T06:18:30.176Z,101713.16
2022-08-18T06:21:43.671Z,101710.13
2022-08-18T06:24:57.920Z,101712.81
2022-08-18T06:28:08.885Z,101721.72
2022-08-18T06:31:20.088Z,101725.66
2022-08-18T06:34:33.402Z,101720.53
2022-08-18T06:38:00.252Z,101728.44
2022-08-18T06:41:40.700Z,101731.97
2022-08-18T06:44:44.885Z,101734.19
2022-08-18T06:47:59.569Z,101729.94
2022-08-18T06:51:07.075Z,101726.38
2022-08-18T06:54:29.421Z,101728.09
2022-08-18T06:57:39.042Z,101748.91
2022-08-18T07:00:56.771Z,101748.34
2022-08-18T07:04:02.256Z,101749.81
2022-08-18T07:07:39.634Z,101740.25
2022-08-18T07:10:48.194Z,101738.59
2022-08-18T07:14:15.042Z,101738.44
2022-08-18T07:17:42.364Z,101737.66
2022-08-18T07:20:53.861Z,101733.94
2022-08-18T07:24:23.703Z,101738.91
2022-08-18T07:27:46.189Z,101739.28
2022-08-18T07:31:15.460Z,101737.25
2022-08-18T07:34:25.617Z,101741.53
2022-08-18T07:37:36.576Z,101758.13
2022-08-18T07:40:48.342Z,101754.25
2022-08-18T07:44:07.494Z,101747.50
2022-08-18T07:47:21.804Z,101751.03
2022-08-18T07:50:57.573Z,101753.16
2022-08-18T07:54:00.334Z,101753.50
2022-08-18T07:57:13.338Z,101759.31
2022-08-18T08:00:57.053Z,101754.56
2022-08-18T08:04:00.618Z,101761.06
2022-08-18T08:07:25.347Z,101763.69
2022-08-18T08:10:36.501Z,101760.50
2022-08-18T08:13:56.047Z,101762.41
2022-08-18T08:17:11.882Z,101761.66
2022-08-18T08:20:28.856Z,101758.63
2022-08-18T08:23:49.447Z,101761.03
2022-08-18T08:27:01.871Z,101750.31
2022-08-18T08:30:12.876Z,101752.16
2022-08-18T08:33:24.743Z,101742.16
2022-08-18T08:36:34.889Z,101745.00
2022-08-18T08:39:45.328Z,101742.22
2022-08-18T08:42:56.364Z,101741.19
2022-08-18T08:46:09.414Z,101739.81
2022-08-18T08:49:28.056Z,101730.03
2022-08-18T08:52:42.361Z,101735.66
2022-08-18T08:55:50.259Z,101734.53
2022-08-18T08:59:00.241Z,101733.78
2022-08-18T09:02:46.557Z,101736.94
2022-08-18T09:06:01.831Z,101736.22
2022-08-18T09:09:32.314Z,101736.75
2022-08-18T09:12:53.923Z,101719.72
2022-08-18T09:16:14.144Z,101729.28
2022-08-18T09:20:04.521Z,101709.34
2022-08-18T09:23:14.877Z,101716.97
2022-08-18T09:26:41.636Z,101716.31
2022-08-18T09:29:53.778Z,101715.81
2022-08-18T09:33:18.836Z,101706.09
2022-08-18T09:36:43.207Z,101705.84
2022-08-18T09:40:17.093Z,101700.88
2022-08-18T09:43:36.654Z,101702.31
2022-08-18T09:47:00.519Z,101705.47
2022-08-18T09:50:56.951Z,101705.84
2022-08-18T09:57:44.772Z,101697.19
2022-08-18T10:04:31.085Z,101697.16
2022-08-18T10:07:43.307Z,101691.63
2022-08-18T10:11:00.922Z,101698.31
2022-08-18T10:14:35.463Z,101691.78
2022-08-18T10:17:52.161Z,101692.28
2022-08-18T10:21:12.324Z,101685.91
2022-08-18T10:24:36.758Z,101684.50
2022-08-18T10:27:52.870Z,101684.91
2022-08-18T10:31:09.900Z,101683.94
2022-08-18T10:34:51.754Z,101681.00
2022-08-18T10:37:59.360Z,101687.94
2022-08-18T10:41:15.298Z,101680.41
2022-08-18T10:52:22.104Z,101669.88
2022-08-18T10:55:48.921Z,101666.78
2022-08-18T10:59:16.287Z,101658.22
2022-08-18T11:02:45.664Z,101664.44
2022-08-18T11:06:04.556Z,101671.84
2022-08-18T11:09:11.909Z,101670.53
2022-08-18T11:12:54.563Z,101662.56
2022-08-18T11:16:10.267Z,101663.50
2022-08-18T11:19:20.339Z,101654.00
2022-08-18T11:22:32.493Z,101664.00
2022-08-18T11:25:42.029Z,101669.47
2022-08-18T11:28:48.523Z,101666.84
2022-08-18T11:31:59.647Z,101672.09
2022-08-18T11:35:16.262Z,101677.31
2022-08-18T11:38:23.788Z,101686.94
2022-08-18T11:41:48.116Z,101675.63
2022-08-18T11:45:06.401Z,101683.03
2022-08-18T11:48:25.158Z,101675.41
2022-08-18T11:51:35.782Z,101675.63
2022-08-18T11:54:50.323Z,101663.50
2022-08-18T11:58:00.361Z,101664.22
2022-08-18T12:01:09.096Z,101668.72
2022-08-18T12:04:24.439Z,101660.06
2022-08-18T12:07:33.589Z,101660.75
2022-08-18T12:10:38.921Z,101657.78
2022-08-18T12:13:51.223Z,101663.72
2022-08-18T12:16:59.677Z,101658.72
2022-08-18T12:20:08.809Z,101660.25
2022-08-18T12:23:17.039Z,101663.75
2022-08-18T12:26:38.102Z,101658.25
2022-08-18T12:29:44.156Z,101659.34
2022-08-18T12:33:00.829Z,101656.44
2022-08-18T12:36:15.799Z,101651.47
2022-08-18T12:39:21.124Z,101653.81
2022-08-18T12:42:28.447Z,101655.50
2022-08-18T12:45:38.181Z,101662.28
2022-08-18T12:48:45.392Z,101654.06
2022-08-18T12:51:54.618Z,101654.91
2022-08-18T12:55:01.426Z,101643.69
2022-08-18T12:58:08.411Z,101638.66
2022-08-18T13:01:13.720Z,101631.97
2022-08-18T13:04:26.854Z,101632.47
2022-08-18T13:07:32.502Z,101636.06
2022-08-18T13:10:45.879Z,101631.56
2022-08-18T13:13:56.589Z,101636.31
2022-08-18T13:17:02.175Z,101640.03
2022-08-18T13:20:13.807Z,101631.56
2022-08-18T13:23:24.097Z,101633.47
2022-08-18T13:26:32.942Z,101635.63
2022-08-18T13:29:38.031Z,101633.47
2022-08-18T13:32:58.977Z,101631.25
2022-08-18T13:36:09.676Z,101632.31
2022-08-18T13:39:16.062Z,101635.53
2022-08-18T13:42:26.456Z,101641.78
2022-08-18T13:45:35.087Z,101642.31
2022-08-18T13:48:42.430Z,101644.84
2022-08-18T13:51:52.163Z,101652.00
2022-08-18T13:54:57.164Z,101657.50
2022-08-18T13:58:17.506Z,101647.28
2022-08-18T14:01:45.072Z,101646.38
2022-08-18T14:04:54.914Z,101646.97
2022-08-18T14:08:01.755Z,101634.16
2022-08-18T14:11:07.420Z,101634.56
2022-08-18T14:14:13.802Z,101642.78
2022-08-18T14:17:22.556Z,101639.84
2022-08-18T14:20:48.212Z,101639.47
2022-08-18T14:24:14.372Z,101629.59
2022-08-18T14:27:20.183Z,101639.44
2022-08-18T14:30:26.011Z,101637.66
2022-08-18T14:33:49.894Z,101643.19
2022-08-18T14:36:57.132Z,101636.84
2022-08-18T14:40:04.266Z,101628.03
2022-08-18T14:43:10.927Z,101628.50
2022-08-18T14:46:16.495Z,101628.59
2022-08-18T14:49:28.158Z,101635.50
2022-08-18T14:52:34.061Z,101631.00
2022-08-18T14:55:40.577Z,101636.22
2022-08-18T14:58:45.635Z,101638.28
2022-08-18T15:01:51.859Z,101643.94
2022-08-18T15:04:58.560Z,101642.19
2022-08-18T15:08:05.008Z,101649.25
2022-08-18T15:11:12.406Z,101644.69
2022-08-18T15:14:20.367Z,101648.69
2022-08-18T15:17:33.543Z,101643.25
2022-08-18T15:20:57.123Z,101630.09
2022-08-18T15:24:20.105Z,101625.06
2022-08-18T15:27:42.204Z,101623.00
2022-08-18T15:30:51.150Z,101598.63
2022-08-18T15:33:57.592Z,101598.28
2022-08-18T15:37:09.437Z,101614.69
2022-08-18T15:40:21.967Z,101623.38
2022-08-18T15:43:45.830Z,101622.50
2022-08-18T15:46:53.606Z,101632.38
2022-08-18T15:49:58.858Z,101619.50
2022-08-18T15:53:07.964Z,101618.97
2022-08-18T15:56:21.026Z,101625.44
2022-08-18T15:59:38.950Z,101616.59
2022-08-18T16:02:51.467Z,101624.31
2022-08-18T16:05:57.321Z,101616.34
2022-08-18T16:09:04.122Z,101620.34
2022-08-18T16:12:10.530Z,101618.16
2022-08-18T16:15:21.492Z,101627.50
2022-08-18T16:18:27.543Z,101625.34
2022-08-18T16:21:32.738Z,101622.28
2022-08-18T16:24:37.751Z,101624.38
2022-08-18T16:27:42.970Z,101628.94
2022-08-18T16:30:50.401Z,101632.03
2022-08-18T16:33:56.406Z,101625.06
2022-08-18T16:37:01.497Z,101624.75
2022-08-18T16:40:08.578Z,101617.03
2022-08-18T16:43:14.900Z,101611.25
2022-08-18T16:46:25.284Z,101609.72
2022-08-18T16:49:30.594Z,101603.94
2022-08-18T16:52:36.298Z,101602.94
2022-08-18T16:55:43.969Z,101603.03
2022-08-18T16:59:18.292Z,101605.72
2022-08-18T17:02:43.083Z,101593.97
2022-08-18T17:05:48.318Z,101599.91
2022-08-18T17:08:53.398Z,101605.97
2022-08-18T17:11:58.740Z,101611.16
2022-08-18T17:15:06.303Z,101612.09
2022-08-18T17:18:14.406Z,101618.78
2022-08-18T17:21:25.756Z,101613.56
2022-08-18T17:24:32.653Z,101614.72
2022-08-18T17:27:39.006Z,101615.44
2022-08-18T17:30:50.114Z,101618.06
2022-08-18T17:34:05.801Z,101617.75
2022-08-18T17:37:16.409Z,101634.97
2022-08-18T17:40:29.518Z,101629.22
2022-08-18T17:46:49.179Z,101627.34
2022-08-18T17:50:28.162Z,101634.81
2022-08-18T17:53:36.285Z,101650.53
2022-08-18T17:56:46.851Z,101652.69
2022-08-18T17:59:59.671Z,101648.63
2022-08-18T18:03:06.002Z,101647.66
2022-08-18T18:06:25.086Z,101641.59
2022-08-18T18:09:32.427Z,101639.94
2022-08-18T18:12:39.362Z,101637.75
2022-08-18T18:15:49.121Z,101644.06
2022-08-18T18:19:03.350Z,101640.28
2022-08-18T18:22:21.096Z,101636.88
2022-08-18T18:25:34.820Z,101645.63
2022-08-18T18:28:40.051Z,101646.56
2022-08-18T18:31:58.392Z,101655.72
2022-08-18T18:35:15.375Z,101656.47
2022-08-18T18:38:30.547Z,101659.25
2022-08-18T18:41:39.739Z,101657.66
2022-08-18T18:44:54.015Z,101654.56
2022-08-18T18:48:06.424Z,101655.81
2022-08-18T18:51:19.358Z,101652.81
2022-08-18T18:54:59.706Z,101657.75
2022-08-18T18:58:17.882Z,101650.31
2022-08-18T19:01:32.684Z,101651.56
2022-08-18T19:04:40.953Z,101660.22
2022-08-18T19:08:04.969Z,101662.63
2022-08-18T19:11:19.554Z,101660.81
2022-08-18T19:14:29.707Z,101657.41
2022-08-18T19:17:43.331Z,101657.41
2022-08-18T19:22:01.878Z,101661.22
2022-08-18T19:24:21.583Z,101667.53
2022-08-18T19:27:44.351Z,101675.44
2022-08-18T19:30:52.390Z,101674.69
2022-08-18T19:34:01.098Z,101677.13
2022-08-18T19:37:30.983Z,101679.72
2022-08-18T19:40:46.076Z,101693.59
2022-08-18T19:44:05.561Z,101695.72
2022-08-18T19:47:18.371Z,101698.31
2022-08-18T19:50:36.519Z,101704.09
2022-08-18T19:54:05.623Z,101701.38
2022-08-18T19:57:34.454Z,101696.81
2022-08-18T20:00:48.961Z,101697.72
2022-08-18T20:04:13.414Z,101694.91
2022-08-18T20:07:56.319Z,101690.69
2022-08-18T20:11:41.981Z,101691.03
2022-08-18T20:15:01.509Z,101688.19
2022-08-18T20:18:23.194Z,101693.63
2022-08-18T20:21:49.514Z,101688.75
2022-08-18T20:24:57.307Z,101693.50
2022-08-18T20:28:35.520Z,101701.19
2022-08-18T20:31:59.788Z,101683.16
2022-08-18T20:35:19.329Z,101686.16
2022-08-18T20:38:35.026Z,101677.59
2022-08-18T20:41:47.215Z,101673.50
2022-08-18T20:45:00.278Z,101666.84
2022-08-18T20:48:23.733Z,101675.50
2022-08-18T20:51:33.637Z,101678.34
2022-08-18T20:54:58.245Z,101671.97
2022-08-18T20:58:08.302Z,101673.09
2022-08-18T21:01:15.567Z,101664.72
2022-08-18T21:04:42.972Z,101652.38
2022-08-18T21:08:04.701Z,101649.59
2022-08-18T21:11:27.180Z,101652.16
2022-08-18T21:14:37.554Z,101640.47
2022-08-18T21:17:43.642Z,101649.66
2022-08-18T21:20:49.722Z,101640.28
2022-08-18T21:23:59.614Z,101638.03
2022-08-18T21:27:08.538Z,101648.66
2022-08-18T21:30:20.239Z,101638.78
2022-08-18T21:33:26.014Z,101639.59
2022-08-18T21:36:32.299Z,101642.78
2022-08-18T21:39:50.920Z,101646.97
2022-08-18T21:42:56.319Z,101649.34
2022-08-18T21:46:01.701Z,101647.88
2022-08-18T21:49:07.610Z,101653.38
2022-08-18T21:52:24.103Z,101651.75
2022-08-18T21:55:37.212Z,101650.66
2022-08-18T21:58:45.292Z,101650.25
2022-08-18T22:01:54.768Z,101648.41
2022-08-18T22:05:00.117Z,101646.22
2022-08-18T22:08:05.339Z,101639.94
2022-08-18T22:12:00.798Z,101639.06
2022-08-18T22:15:11.075Z,101638.09
2022-08-18T22:18:36.586Z,101627.25
2022-08-18T22:21:46.603Z,101625.56
2022-08-18T22:24:55.983Z,101619.13
2022-08-18T22:28:03.255Z,101618.88
2022-08-18T22:31:08.651Z,101609.28
2022-08-18T22:34:17.684Z,101612.91
2022-08-18T22:37:38.462Z,101601.75
2022-08-18T22:40:43.495Z,101608.06
2022-08-18T22:43:55.086Z,101608.06
2022-08-18T22:47:01.169Z,101609.53
2022-08-18T22:50:07.674Z,101609.28
2022-08-18T22:53:16.005Z,101612.44
2022-08-18T22:56:21.888Z,101600.72
2022-08-18T22:59:42.697Z,101598.50
2022-08-18T23:02:48.264Z,101590.09
2022-08-18T23:05:54.731Z,101589.75
2022-08-18T23:09:01.415Z,101594.75
2022-08-18T23:12:13.565Z,101594.34
2022-08-18T23:15:20.890Z,101604.09
2022-08-18T23:18:27.430Z,101597.38
2022-08-18T23:21:34.480Z,101593.41
2022-08-18T23:24:41.952Z,101595.34
2022-08-18T23:27:47.158Z,101591.66
2022-08-18T23:30:55.911Z,101596.63
2022-08-18T23:34:01.926Z,101594.13
2022-08-18T23:37:09.707Z,101599.97
2022-08-18T23:40:16.840Z,101606.78
2022-08-18T23:43:23.285Z,101604.16
2022-08-18T23:46:31.984Z,101598.72
2022-08-18T23:49:38.327Z,101597.38
2022-08-18T23:52:43.761Z,101595.91
2022-08-18T23:55:52.806Z,101599.09
2022-08-18T23:58:58.600Z,101593.59
